createdAt,value
2023-04-02T00:00:58.922Z,0.00
2023-04-02T00:03:00.494Z,0.00
2023-04-02T00:05:16.750Z,0.00
2023-04-02T00:07:30.428Z,0.00
2023-04-02T00:09:33.388Z,0.00
2023-04-02T00:11:33.247Z,0.10
2023-04-02T00:13:33.267Z,0.43
2023-04-02T00:15:31.635Z,0.05
2023-04-02T00:17:29.581Z,0.10
2023-04-02T00:19:31.985Z,0.00
2023-04-02T00:21:30.940Z,0.00
2023-04-02T00:23:29.314Z,0.00
2023-04-02T00:25:28.011Z,0.00
2023-04-02T00:27:26.084Z,0.00
2023-04-02T00:29:23.901Z,0.10
2023-04-02T00:31:22.061Z,0.00
2023-04-02T00:33:21.371Z,0.00
2023-04-02T00:35:24.358Z,0.00
2023-04-02T00:37:25.310Z,0.00
2023-04-02T00:39:25.181Z,0.10
2023-04-02T00:41:27.286Z,0.00
2023-04-02T00:43:25.790Z,0.00
2023-04-02T00:45:25.079Z,0.00
2023-04-02T00:47:24.546Z,0.05
2023-04-02T00:49:24.849Z,0.00
2023-04-02T00:51:26.011Z,0.00
2023-04-02T00:53:26.391Z,0.05
2023-04-02T00:55:26.338Z,0.05
2023-04-02T00:57:26.024Z,0.00
2023-04-02T00:59:27.546Z,0.00
2023-04-02T01:01:26.402Z,0.00
2023-04-02T01:03:30.400Z,0.00
2023-04-02T01:05:28.626Z,0.00
2023-04-02T01:07:35.963Z,0.00
2023-04-02T01:09:48.853Z,0.10
2023-04-02T01:11:56.550Z,0.00
2023-04-02T01:13:59.617Z,0.05
2023-04-02T01:16:00.064Z,0.00
2023-04-02T01:18:06.561Z,0.00
2023-04-02T01:20:13.951Z,0.00
2023-04-02T01:22:16.080Z,0.00
2023-04-02T01:24:16.088Z,0.20
2023-04-02T01:26:17.992Z,0.00
2023-04-02T01:28:19.781Z,0.00
2023-04-02T01:30:20.284Z,0.00
2023-04-02T01:32:19.670Z,0.10
2023-04-02T01:34:18.405Z,0.10
2023-04-02T01:36:21.466Z,0.05
2023-04-02T01:38:23.572Z,0.00
2023-04-02T01:40:26.708Z,0.00
2023-04-02T01:42:27.063Z,0.00
2023-04-02T01:44:28.023Z,0.13
2023-04-02T01:46:27.949Z,0.00
2023-04-02T01:48:30.181Z,0.00
2023-04-02T01:50:32.344Z,0.00
2023-04-02T01:52:36.591Z,0.00
2023-04-02T01:54:35.031Z,0.00
2023-04-02T01:56:33.222Z,0.10
2023-04-02T01:58:32.819Z,0.30
2023-04-02T02:00:35.231Z,0.03
2023-04-02T02:02:35.281Z,0.00
2023-04-02T02:04:34.097Z,0.05
2023-04-02T02:06:32.365Z,0.10
2023-04-02T02:08:34.616Z,0.00
2023-04-02T02:10:35.159Z,0.13
2023-04-02T02:12:33.255Z,0.25
2023-04-02T02:14:32.024Z,0.00
2023-04-02T02:16:32.068Z,0.00
2023-04-02T02:18:32.187Z,0.00
2023-04-02T02:20:30.708Z,0.00
2023-04-02T02:22:30.200Z,0.00
2023-04-02T02:24:30.891Z,0.10
2023-04-02T02:26:31.242Z,0.20
2023-04-02T02:28:32.400Z,0.05
2023-04-02T02:30:31.635Z,0.20
2023-04-02T02:32:31.013Z,0.00
2023-04-02T02:34:35.313Z,0.00
2023-04-02T02:36:36.354Z,0.00
2023-04-02T02:38:43.803Z,0.00
2023-04-02T02:40:49.532Z,0.00
2023-04-02T02:42:50.648Z,0.10
2023-04-02T02:44:49.949Z,0.00
2023-04-02T02:46:51.228Z,0.22
2023-04-02T02:48:49.342Z,0.40
2023-04-02T02:50:49.153Z,0.20
2023-04-02T02:52:48.233Z,0.35
2023-04-02T02:54:49.179Z,0.30
2023-04-02T02:56:49.608Z,0.00
2023-04-02T02:58:47.634Z,0.00
2023-04-02T03:01:00.064Z,0.10
2023-04-02T03:02:59.144Z,0.00
2023-04-02T03:05:02.960Z,0.25
2023-04-02T03:07:03.799Z,0.00
2023-04-02T03:09:04.662Z,0.30
2023-04-02T03:11:08.341Z,0.00
2023-04-02T03:13:09.278Z,0.00
2023-04-02T03:15:12.556Z,0.20
2023-04-02T03:17:12.477Z,0.00
2023-04-02T03:19:16.443Z,0.00
2023-04-02T03:21:27.860Z,0.00
2023-04-02T03:23:30.331Z,0.10
2023-04-02T03:25:31.448Z,0.00
2023-04-02T03:27:33.869Z,0.13
2023-04-02T03:29:34.340Z,0.00
2023-04-02T03:31:33.813Z,0.08
2023-04-02T03:33:35.263Z,0.00
2023-04-02T03:35:37.414Z,0.00
2023-04-02T03:37:39.747Z,0.20
2023-04-02T03:39:41.901Z,0.10
2023-04-02T03:41:42.707Z,0.52
2023-04-02T03:43:41.935Z,0.68
2023-04-02T03:45:42.373Z,0.20
2023-04-02T03:47:43.732Z,0.35
2023-04-02T03:49:44.691Z,0.17
2023-04-02T03:51:48.455Z,0.10
2023-04-02T03:53:47.379Z,0.05
2023-04-02T03:55:46.846Z,0.10
2023-04-02T03:57:53.959Z,0.20
2023-04-02T03:59:55.363Z,0.00
2023-04-02T04:01:56.441Z,0.57
2023-04-02T04:03:54.968Z,1.67
2023-04-02T04:05:55.917Z,0.50
2023-04-02T04:07:55.008Z,0.60
2023-04-02T04:09:53.849Z,0.50
2023-04-02T04:11:55.151Z,0.20
2023-04-02T04:13:57.196Z,0.30
2023-04-02T04:15:57.200Z,0.20
2023-04-02T04:18:02.488Z,7.82
2023-04-02T04:20:08.122Z,1.13
2023-04-02T04:22:10.817Z,0.47
2023-04-02T04:24:17.344Z,0.50
2023-04-02T04:26:19.951Z,0.20
2023-04-02T04:28:26.596Z,0.15
2023-04-02T04:30:27.934Z,0.10
2023-04-02T04:32:32.509Z,0.40
2023-04-02T04:34:42.388Z,0.73
2023-04-02T04:36:54.024Z,0.22
2023-04-02T04:38:59.476Z,0.10
2023-04-02T04:41:02.347Z,0.10
2023-04-02T04:43:04.393Z,0.10
2023-04-02T04:45:07.911Z,0.30
2023-04-02T04:47:09.275Z,0.20
2023-04-02T04:49:09.776Z,0.08
2023-04-02T04:51:09.984Z,0.10
2023-04-02T04:53:16.726Z,0.10
2023-04-02T04:55:24.550Z,0.65
2023-04-02T04:57:28.607Z,0.10
2023-04-02T04:59:28.154Z,0.08
2023-04-02T05:01:34.138Z,0.25
2023-04-02T05:03:35.537Z,0.00
2023-04-02T05:05:39.222Z,0.10
2023-04-02T05:07:47.113Z,0.20
2023-04-02T05:09:51.190Z,0.17
2023-04-02T05:12:00.997Z,0.00
2023-04-02T05:14:02.463Z,0.10
2023-04-02T05:16:05.938Z,0.00
2023-04-02T05:20:08.250Z,0.47
2023-04-02T05:22:15.327Z,0.17
2023-04-02T05:24:30.344Z,0.10
2023-04-02T05:26:31.828Z,0.00
2023-04-02T05:28:34.139Z,0.30
2023-04-02T05:30:56.424Z,0.00
2023-04-02T05:32:57.641Z,0.20
2023-04-02T05:34:58.736Z,0.43
2023-04-02T05:36:58.662Z,0.10
2023-04-02T05:38:57.784Z,0.10
2023-04-02T05:41:04.228Z,0.30
2023-04-02T05:43:03.382Z,0.00
2023-04-02T05:45:09.788Z,0.10
2023-04-02T05:47:09.820Z,0.20
2023-04-02T05:49:11.258Z,0.10
2023-04-02T05:51:10.472Z,0.33
2023-04-02T05:53:15.000Z,0.00
2023-04-02T05:55:28.618Z,0.03
2023-04-02T05:57:42.136Z,0.10
2023-04-02T05:59:47.922Z,0.50
2023-04-02T06:01:49.689Z,0.30
2023-04-02T06:04:12.561Z,0.73
2023-04-02T06:06:15.020Z,0.10
2023-04-02T06:08:16.860Z,0.03
2023-04-02T06:10:18.382Z,1.53
2023-04-02T06:12:29.683Z,0.10
2023-04-02T06:14:28.903Z,0.43
2023-04-02T06:16:32.021Z,0.63
2023-04-02T06:18:31.668Z,0.15
2023-04-02T06:20:30.731Z,0.00
2023-04-02T06:22:33.953Z,0.33
2023-04-02T06:24:33.514Z,0.00
2023-04-02T06:26:35.263Z,0.67
2023-04-02T06:28:39.195Z,0.50
2023-04-02T06:30:39.776Z,5.03
2023-04-02T06:32:38.561Z,0.27
2023-04-02T06:34:37.856Z,0.00
2023-04-02T06:36:39.275Z,0.67
2023-04-02T06:38:40.669Z,0.10
2023-04-02T06:40:45.453Z,0.40
2023-04-02T06:43:02.085Z,0.07
2023-04-02T06:45:25.231Z,0.10
2023-04-02T06:47:43.510Z,0.00
2023-04-02T06:49:49.363Z,0.07
2023-04-02T06:51:49.190Z,2.13
2023-04-02T06:53:48.879Z,1.70
2023-04-02T06:55:53.918Z,0.10
2023-04-02T06:57:56.290Z,0.00
2023-04-02T06:59:54.217Z,0.00
2023-04-02T07:01:57.396Z,0.20
2023-04-02T07:03:56.036Z,2.37
2023-04-02T07:06:03.633Z,0.50
2023-04-02T07:08:03.446Z,0.10
2023-04-02T07:10:01.446Z,0.10
2023-04-02T07:12:00.668Z,0.00
2023-04-02T07:13:58.539Z,0.00
2023-04-02T07:15:57.488Z,0.00
2023-04-02T07:17:57.615Z,0.10
2023-04-02T07:19:55.914Z,0.20
2023-04-02T07:21:54.783Z,0.10
2023-04-02T07:23:54.094Z,1.40
2023-04-02T07:25:52.771Z,0.30
2023-04-02T07:27:52.444Z,0.30
2023-04-02T07:29:50.461Z,0.10
2023-04-02T07:31:48.404Z,0.10
2023-04-02T07:33:46.700Z,0.00
2023-04-02T07:35:45.092Z,0.00
2023-04-02T07:37:42.975Z,0.00
2023-04-02T07:39:41.533Z,0.00
2023-04-02T07:41:51.738Z,0.27
2023-04-02T07:43:51.230Z,0.00
2023-04-02T07:45:49.261Z,0.00
2023-04-02T07:47:47.186Z,0.00
2023-04-02T07:49:45.083Z,0.00
2023-04-02T07:51:42.917Z,0.00
2023-04-02T07:53:41.831Z,0.00
2023-04-02T07:55:39.617Z,0.00
2023-04-02T07:57:39.192Z,0.23
2023-04-02T07:59:38.441Z,0.00
2023-04-02T08:01:36.720Z,0.00
2023-04-02T08:03:34.752Z,0.73
2023-04-02T08:05:33.927Z,0.00
2023-04-02T08:07:32.333Z,0.10
2023-04-02T08:09:30.480Z,2.73
2023-04-02T08:11:31.143Z,0.00
2023-04-02T08:13:29.709Z,0.00
2023-04-02T08:15:28.902Z,0.20
2023-04-02T08:17:31.403Z,0.57
2023-04-02T08:19:29.504Z,0.00
2023-04-02T08:21:27.267Z,0.00
2023-04-02T08:23:25.537Z,0.00
2023-04-02T08:25:23.430Z,0.00
2023-04-02T08:27:21.358Z,0.00
2023-04-02T08:29:19.337Z,0.00
2023-04-02T08:31:19.283Z,0.00
2023-04-02T08:33:18.112Z,0.00
2023-04-02T08:35:17.414Z,0.00
2023-04-02T08:37:15.866Z,0.00
2023-04-02T08:39:13.911Z,0.00
2023-04-02T08:41:18.017Z,0.00
2023-04-02T08:45:38.058Z,0.00
2023-04-02T08:47:40.603Z,0.00
2023-04-02T08:49:41.738Z,0.00
2023-04-02T08:51:39.665Z,0.00
2023-04-02T08:53:38.880Z,0.00
2023-04-02T08:55:39.963Z,0.20
2023-04-02T08:57:40.276Z,0.00
2023-04-02T08:59:39.969Z,0.00
2023-04-02T09:01:41.583Z,0.00
2023-04-02T09:03:42.879Z,0.00
2023-04-02T09:05:43.031Z,0.00
2023-04-02T09:07:42.259Z,0.00
2023-04-02T09:09:40.192Z,0.13
2023-04-02T09:11:42.806Z,0.00
2023-04-02T09:13:44.770Z,0.00
2023-04-02T09:15:42.656Z,0.00
2023-04-02T09:17:53.229Z,0.10
2023-04-02T09:19:56.464Z,0.00
2023-04-02T09:22:00.101Z,0.00
2023-04-02T09:23:58.011Z,0.13
2023-04-02T09:26:04.115Z,0.00
2023-04-02T09:28:03.717Z,0.00
2023-04-02T09:30:03.708Z,0.00
2023-04-02T09:32:07.206Z,0.00
2023-04-02T09:34:25.553Z,0.00
2023-04-02T09:36:32.064Z,0.00
2023-04-02T09:38:31.786Z,0.00
2023-04-02T09:40:32.986Z,0.00
2023-04-02T09:42:32.038Z,0.00
2023-04-02T09:44:31.225Z,0.00
2023-04-02T09:46:29.191Z,0.00
2023-04-02T09:48:30.501Z,0.00
2023-04-02T09:50:30.572Z,0.00
2023-04-02T09:52:31.091Z,0.00
2023-04-02T09:54:29.221Z,0.00
2023-04-02T09:56:27.798Z,0.10
2023-04-02T09:58:25.779Z,0.00
2023-04-02T10:00:32.154Z,0.00
2023-04-02T10:02:30.733Z,0.00
2023-04-02T10:04:37.013Z,0.00
2023-04-02T10:06:35.667Z,0.07
2023-04-02T10:08:36.085Z,0.00
2023-04-02T10:10:37.430Z,0.00
2023-04-02T10:12:38.805Z,0.00
2023-04-02T10:14:37.976Z,0.00
2023-04-02T10:16:38.331Z,0.00
2023-04-02T10:18:42.576Z,0.00
2023-04-02T10:20:50.538Z,0.00
2023-04-02T10:22:49.958Z,0.00
2023-04-02T10:24:49.538Z,0.00
2023-04-02T10:26:54.856Z,0.07
2023-04-02T10:29:06.714Z,0.00
2023-04-02T10:31:07.382Z,0.00
2023-04-02T10:33:08.552Z,0.00
2023-04-02T10:35:12.331Z,0.00
2023-04-02T10:37:16.134Z,0.00
2023-04-02T10:39:16.640Z,0.00
2023-04-02T10:41:26.840Z,0.00
2023-04-02T10:43:36.796Z,0.00
2023-04-02T10:45:41.498Z,0.00
2023-04-02T10:47:42.890Z,0.00
2023-04-02T10:49:43.516Z,6.63
2023-04-02T10:51:43.296Z,1.00
2023-04-02T10:53:44.631Z,0.40
2023-04-02T10:55:44.984Z,0.20
2023-04-02T10:57:45.574Z,1.73
2023-04-02T10:59:45.662Z,1.57
2023-04-02T11:01:45.049Z,0.83
2023-04-02T11:03:45.270Z,0.00
2023-04-02T11:05:44.652Z,0.00
2023-04-02T11:07:47.789Z,0.00
2023-04-02T11:09:48.292Z,0.67
2023-04-02T11:11:47.510Z,0.47
2023-04-02T11:13:51.911Z,0.00
2023-04-02T11:15:50.247Z,0.03
2023-04-02T11:17:48.908Z,0.00
2023-04-02T11:19:47.012Z,0.00
2023-04-02T11:21:58.055Z,1.17
2023-04-02T11:23:59.334Z,0.57
2023-04-02T11:26:15.856Z,0.43
2023-04-02T11:28:15.144Z,0.00
2023-04-02T11:30:21.229Z,0.00
2023-04-02T11:32:28.417Z,0.00
2023-04-02T11:34:44.832Z,0.00
2023-04-02T11:37:01.787Z,0.00
2023-04-02T11:39:07.405Z,0.00
2023-04-02T11:41:12.935Z,0.20
2023-04-02T11:43:29.826Z,2.13
2023-04-02T11:45:52.939Z,0.23
2023-04-02T11:48:21.628Z,0.33
2023-04-02T11:50:31.105Z,1.60
2023-04-02T11:52:30.904Z,0.00
2023-04-02T11:54:30.088Z,0.00
2023-04-02T11:56:29.985Z,0.00
2023-04-02T11:58:35.971Z,0.30
2023-04-02T12:00:55.643Z,0.00
2023-04-02T12:02:59.604Z,0.00
2023-04-02T12:05:03.537Z,0.00
2023-04-02T12:07:21.011Z,0.00
2023-04-02T12:09:22.641Z,0.03
2023-04-02T12:11:31.450Z,0.00
2023-04-02T12:13:48.607Z,0.00
2023-04-02T12:15:47.665Z,0.00
2023-04-02T12:17:45.971Z,0.00
2023-04-02T12:19:47.456Z,0.00
2023-04-02T12:21:47.343Z,0.00
2023-04-02T12:23:53.399Z,0.10
2023-04-02T12:25:56.541Z,0.00
2023-04-02T12:28:04.686Z,0.00
2023-04-02T12:30:13.854Z,0.00
2023-04-02T12:32:20.040Z,0.00
2023-04-02T12:34:19.208Z,0.00
2023-04-02T12:36:21.070Z,0.00
2023-04-02T12:38:22.817Z,0.03
2023-04-02T12:40:22.319Z,0.00
2023-04-02T12:42:27.188Z,0.00
2023-04-02T12:44:26.290Z,0.00
2023-04-02T12:46:26.109Z,0.00
2023-04-02T12:48:24.706Z,0.03
2023-04-02T12:50:23.471Z,0.00
2023-04-02T12:52:22.538Z,0.00
2023-04-02T12:54:21.226Z,0.00
2023-04-02T12:56:24.506Z,0.00
2023-04-02T12:58:30.670Z,0.00
2023-04-02T13:00:38.123Z,0.30
2023-04-02T13:02:47.253Z,0.00
2023-04-02T13:04:48.998Z,0.00
2023-04-02T13:06:50.024Z,0.00
2023-04-02T13:08:47.947Z,0.00
2023-04-02T13:10:46.344Z,0.00
2023-04-02T13:12:46.280Z,0.00
2023-04-02T13:14:44.215Z,0.00
2023-04-02T13:16:42.214Z,0.00
2023-04-02T13:18:40.662Z,0.00
2023-04-02T13:20:39.971Z,0.37
2023-04-02T13:22:38.026Z,0.00
2023-04-02T13:24:36.068Z,0.00
2023-04-02T13:26:34.059Z,0.00
2023-04-02T13:28:33.421Z,0.00
2023-04-02T13:30:31.728Z,0.00
2023-04-02T13:32:31.212Z,0.00
2023-04-02T13:34:31.800Z,0.00
2023-04-02T13:36:32.841Z,0.10
2023-04-02T13:38:30.954Z,0.03
2023-04-02T13:40:28.914Z,0.07
2023-04-02T13:42:27.200Z,0.00
2023-04-02T13:44:27.344Z,0.00
2023-04-02T13:46:27.270Z,0.63
2023-04-02T13:48:28.723Z,0.00
2023-04-02T13:50:26.701Z,0.00
2023-04-02T13:52:24.640Z,0.00
2023-04-02T13:54:25.898Z,0.20
2023-04-02T13:56:25.031Z,0.87
2023-04-02T13:58:23.308Z,0.00
2023-04-02T14:00:22.836Z,0.00
2023-04-02T14:02:23.192Z,0.00
2023-04-02T14:04:22.857Z,0.00
2023-04-02T14:06:23.572Z,0.00
2023-04-02T14:08:24.131Z,0.00
2023-04-02T14:10:27.285Z,0.10
2023-04-02T14:12:30.127Z,0.00
2023-04-02T14:14:45.579Z,0.00
2023-04-02T14:16:51.471Z,0.00
2023-04-02T14:18:57.481Z,0.00
2023-04-02T14:21:01.276Z,0.10
2023-04-02T14:23:12.310Z,0.00
2023-04-02T14:25:13.987Z,0.00
2023-04-02T14:27:20.046Z,0.00
2023-04-02T14:29:22.386Z,0.00
2023-04-02T14:31:27.724Z,0.00
2023-04-02T14:33:33.263Z,0.00
2023-04-02T14:35:35.123Z,0.00
2023-04-02T14:37:36.979Z,0.00
2023-04-02T14:39:40.160Z,0.00
2023-04-02T14:41:42.142Z,0.00
2023-04-02T14:43:43.588Z,0.00
2023-04-02T14:45:45.726Z,0.00
2023-04-02T14:47:46.436Z,0.00
2023-04-02T14:49:47.982Z,0.00
2023-04-02T14:51:47.958Z,0.00
2023-04-02T14:53:51.817Z,0.00
2023-04-02T14:55:51.097Z,0.00
2023-04-02T14:57:51.960Z,0.00
2023-04-02T14:59:54.207Z,0.10
2023-04-02T15:01:54.551Z,0.00
2023-04-02T15:03:55.267Z,0.00
2023-04-02T15:05:56.025Z,0.93
2023-04-02T15:07:57.712Z,0.30
2023-04-02T15:10:00.494Z,0.27
2023-04-02T15:12:01.292Z,0.00
2023-04-02T15:14:03.942Z,0.00
2023-04-02T15:16:07.151Z,0.00
2023-04-02T15:18:07.333Z,0.00
2023-04-02T15:20:13.591Z,0.10
2023-04-02T15:22:19.752Z,0.00
2023-04-02T15:24:19.160Z,0.00
2023-04-02T15:26:20.157Z,0.00
2023-04-02T15:28:23.458Z,0.68
2023-04-02T15:30:23.583Z,0.00
2023-04-02T15:32:28.058Z,0.00
2023-04-02T15:34:28.527Z,0.00
2023-04-02T15:36:44.110Z,0.00
2023-04-02T15:38:44.949Z,0.00
2023-04-02T15:40:54.952Z,0.00
2023-04-02T15:42:55.347Z,0.00
2023-04-02T15:45:10.796Z,0.00
2023-04-02T15:47:13.780Z,0.00
2023-04-02T15:49:20.073Z,0.00
2023-04-02T15:51:24.587Z,0.00
2023-04-02T15:53:31.916Z,0.00
2023-04-02T15:55:35.875Z,0.00
2023-04-02T15:57:45.810Z,0.00
2023-04-02T15:59:56.038Z,0.00
2023-04-02T16:01:59.156Z,0.00
2023-04-02T16:04:05.132Z,0.00
2023-04-02T16:06:16.871Z,0.00
2023-04-02T16:08:32.569Z,0.00
2023-04-02T16:10:41.919Z,0.03
2023-04-02T16:12:42.081Z,0.10
2023-04-02T16:14:45.827Z,0.00
2023-04-02T16:16:43.848Z,0.00
2023-04-02T16:18:45.550Z,0.00
2023-04-02T16:20:45.040Z,0.00
2023-04-02T16:22:53.688Z,0.10
2023-04-02T16:25:01.156Z,0.00
2023-04-02T16:27:05.018Z,0.03
2023-04-02T16:29:08.229Z,0.00
2023-04-02T16:31:08.845Z,0.00
2023-04-02T16:33:12.073Z,0.10
2023-04-02T16:35:41.237Z,0.13
2023-04-02T16:37:39.985Z,0.00
2023-04-02T16:39:40.732Z,0.00
2023-04-02T16:41:46.939Z,0.00
2023-04-02T16:43:50.814Z,0.10
2023-04-02T16:45:54.533Z,0.00
2023-04-02T16:48:01.593Z,0.00
2023-04-02T16:50:02.316Z,1.67
2023-04-02T16:52:08.565Z,3.40
2023-04-02T16:54:11.403Z,0.55
2023-04-02T16:56:22.843Z,0.00
2023-04-02T16:58:27.466Z,0.08
2023-04-02T17:00:30.940Z,0.00
2023-04-02T17:02:34.276Z,0.00
2023-04-02T17:04:55.775Z,0.00
2023-04-02T17:06:57.065Z,0.17
2023-04-02T17:08:58.223Z,1.23
2023-04-02T17:10:58.418Z,0.00
2023-04-02T17:13:00.782Z,0.00
2023-04-02T17:15:00.813Z,0.10
2023-04-02T17:17:01.831Z,0.00
2023-04-02T17:19:00.905Z,0.03
2023-04-02T17:21:02.192Z,0.20
2023-04-02T17:23:00.290Z,0.35
2023-04-02T17:24:58.917Z,0.15
2023-04-02T17:26:59.732Z,0.10
2023-04-02T17:28:58.734Z,0.20
2023-04-02T17:30:58.524Z,0.38
2023-04-02T17:32:57.885Z,0.00
2023-04-02T17:34:56.666Z,0.90
2023-04-02T17:36:58.836Z,0.30
2023-04-02T17:39:03.144Z,0.17
2023-04-02T17:43:02.020Z,0.75
2023-04-02T17:45:06.224Z,0.20
2023-04-02T17:49:06.642Z,0.98
2023-04-02T17:51:10.131Z,0.43
2023-04-02T17:53:13.179Z,0.85
2023-04-02T17:55:16.136Z,1.13
2023-04-02T17:57:21.172Z,2.50
2023-04-02T17:59:27.109Z,3.67
2023-04-02T18:01:29.959Z,2.92
2023-04-02T18:03:33.745Z,2.78
2023-04-02T18:05:35.411Z,2.60
2023-04-02T18:07:38.056Z,2.70
2023-04-02T18:09:40.682Z,2.60
2023-04-02T18:11:43.995Z,1.75
2023-04-02T18:13:42.897Z,1.58
2023-04-02T18:15:46.980Z,1.88
2023-04-02T18:17:48.576Z,1.05
2023-04-02T18:19:51.820Z,0.75
2023-04-02T18:21:55.786Z,0.98
2023-04-02T18:24:03.825Z,0.77
2023-04-02T18:26:07.901Z,1.42
2023-04-02T18:28:15.035Z,1.37
2023-04-02T18:30:19.130Z,1.98
2023-04-02T18:32:30.036Z,0.65
2023-04-02T18:34:35.022Z,1.75
2023-04-02T18:36:35.406Z,0.35
2023-04-02T18:38:42.083Z,1.10
2023-04-02T18:40:43.368Z,0.40
2023-04-02T18:42:48.043Z,0.60
2023-04-02T18:44:55.096Z,0.93
2023-04-02T18:46:54.022Z,1.17
2023-04-02T18:48:56.943Z,1.05
2023-04-02T18:50:55.121Z,1.60
2023-04-02T18:52:52.957Z,2.83
2023-04-02T18:54:53.872Z,1.00
2023-04-02T18:56:51.809Z,1.70
2023-04-02T18:58:53.375Z,1.17
2023-04-02T19:00:51.938Z,1.73
2023-04-02T19:02:52.161Z,1.50
2023-04-02T19:04:54.344Z,1.80
2023-04-02T19:06:54.112Z,2.22
2023-04-02T19:08:55.463Z,2.33
2023-04-02T19:10:56.348Z,3.13
2023-04-02T19:12:54.370Z,1.92
2023-04-02T19:14:52.789Z,2.50
2023-04-02T19:17:00.960Z,3.13
2023-04-02T19:19:03.341Z,4.07
2023-04-02T19:21:05.596Z,3.30
2023-04-02T19:23:08.062Z,2.88
2023-04-02T19:25:17.717Z,2.70
2023-04-02T19:27:21.893Z,2.40
2023-04-02T19:29:26.183Z,1.63
2023-04-02T19:31:44.652Z,1.52
2023-04-02T19:33:46.328Z,2.13
2023-04-02T19:35:47.607Z,2.42
2023-04-02T19:37:50.689Z,2.15
2023-04-02T19:40:05.082Z,1.08
2023-04-02T19:42:08.794Z,2.17
2023-04-02T19:44:11.854Z,2.22
2023-04-02T19:48:12.992Z,2.13
2023-04-02T19:50:11.341Z,1.63
2023-04-02T19:52:09.340Z,2.63
2023-04-02T19:54:07.441Z,2.65
2023-04-02T19:56:05.555Z,3.58
2023-04-02T19:58:17.693Z,2.88
2023-04-02T20:00:19.911Z,1.40
2023-04-02T20:02:17.986Z,2.08
2023-04-02T20:04:16.190Z,2.70
2023-04-02T20:06:15.639Z,2.50
2023-04-02T20:08:14.148Z,2.38
2023-04-02T20:10:12.377Z,2.92
2023-04-02T20:12:10.530Z,3.20
2023-04-02T20:14:08.433Z,2.58
2023-04-02T20:16:07.979Z,2.83
2023-04-02T20:18:06.237Z,2.47
2023-04-02T20:20:04.866Z,2.90
2023-04-02T20:22:02.935Z,4.80
2023-04-02T20:24:01.065Z,3.88
2023-04-02T20:25:59.400Z,3.83
2023-04-02T20:27:57.614Z,5.80
2023-04-02T20:29:55.715Z,4.13
2023-04-02T20:31:55.211Z,3.50
2023-04-02T20:33:55.677Z,3.75
2023-04-02T20:35:54.720Z,2.22
2023-04-02T20:37:53.023Z,3.75
2023-04-02T20:39:51.798Z,3.45
2023-04-02T20:41:50.402Z,3.60
2023-04-02T20:43:50.045Z,3.78
2023-04-02T20:45:54.620Z,2.80
2023-04-02T20:47:54.180Z,3.78
2023-04-02T20:49:53.076Z,5.07
2023-04-02T20:51:51.110Z,3.35
2023-04-02T20:53:49.229Z,3.22
2023-04-02T20:55:47.611Z,1.63
2023-04-02T20:57:45.763Z,2.35
2023-04-02T20:59:43.627Z,1.10
2023-04-02T21:01:41.611Z,1.42
2023-04-02T21:03:40.829Z,2.40
2023-04-02T21:05:43.696Z,1.17
2023-04-02T21:07:41.696Z,1.52
2023-04-02T21:09:39.523Z,1.85
2023-04-02T21:11:38.084Z,1.52
2023-04-02T21:13:37.382Z,1.67
2023-04-02T21:15:35.522Z,2.90
2023-04-02T21:17:33.950Z,1.35
2023-04-02T21:19:33.487Z,0.95
2023-04-02T21:21:31.516Z,1.65
2023-04-02T21:23:29.555Z,1.38
2023-04-02T21:25:27.545Z,1.75
2023-04-02T21:27:26.170Z,1.30
2023-04-02T21:29:24.090Z,1.23
2023-04-02T21:31:22.918Z,1.70
2023-04-02T21:33:20.999Z,1.77
2023-04-02T21:35:20.320Z,2.33
2023-04-02T21:37:18.327Z,2.55
2023-04-02T21:39:17.898Z,1.42
2023-04-02T21:41:16.884Z,1.38
2023-04-02T21:43:15.018Z,0.88
2023-04-02T21:45:13.214Z,2.17
2023-04-02T21:47:11.323Z,1.20
2023-04-02T21:49:09.764Z,1.13
2023-04-02T21:51:10.492Z,0.77
2023-04-02T21:53:08.512Z,1.13
2023-04-02T21:55:06.765Z,0.80
2023-04-02T21:57:04.874Z,0.60
2023-04-02T21:59:03.258Z,0.93
2023-04-02T22:01:01.268Z,0.70
2023-04-02T22:02:59.452Z,1.35
2023-04-02T22:04:57.380Z,0.70
2023-04-02T22:06:56.695Z,1.13
2023-04-02T22:08:56.319Z,1.65
2023-04-02T22:10:54.451Z,0.38
2023-04-02T22:12:52.931Z,1.48
2023-04-02T22:14:51.797Z,0.75
2023-04-02T22:16:49.950Z,0.17
2023-04-02T22:18:48.672Z,1.23
2023-04-02T22:20:46.716Z,0.90
2023-04-02T22:22:46.567Z,0.47
2023-04-02T22:24:44.510Z,0.57
2023-04-02T22:26:42.539Z,0.68
2023-04-02T22:28:40.555Z,0.98
2023-04-02T22:30:38.886Z,0.52
2023-04-02T22:32:37.506Z,0.77
2023-04-02T22:34:36.911Z,0.77
2023-04-02T22:36:35.189Z,0.68
2023-04-02T22:38:34.892Z,0.70
2023-04-02T22:40:32.991Z,0.85
2023-04-02T22:42:31.010Z,0.57
2023-04-02T22:44:29.133Z,1.27
2023-04-02T22:46:27.593Z,0.35
2023-04-02T22:48:25.763Z,0.68
2023-04-02T22:50:23.728Z,0.90
2023-04-02T22:52:21.672Z,1.02
2023-04-02T22:54:20.977Z,0.38
2023-04-02T22:56:19.530Z,0.73
2023-04-02T22:58:17.499Z,1.08
2023-04-02T23:00:17.506Z,1.13
2023-04-02T23:02:15.390Z,0.63
2023-04-02T23:04:13.237Z,0.47
2023-04-02T23:06:12.436Z,1.45
2023-04-02T23:08:10.639Z,0.80
2023-04-02T23:10:10.491Z,0.52
2023-04-02T23:12:08.377Z,0.52
2023-04-02T23:14:06.416Z,0.57
2023-04-02T23:16:05.162Z,0.15
2023-04-02T23:18:03.192Z,0.10
2023-04-02T23:20:01.071Z,0.28
2023-04-02T23:21:58.849Z,0.08
2023-04-02T23:23:57.100Z,0.30
2023-04-02T23:26:04.708Z,0.40
2023-04-02T23:28:02.768Z,0.20
2023-04-02T23:30:00.732Z,0.52
2023-04-02T23:31:58.668Z,1.10
2023-04-02T23:33:56.875Z,0.20
2023-04-02T23:35:54.730Z,1.25
2023-04-02T23:37:52.665Z,0.82
2023-04-02T23:39:50.694Z,0.82
2023-04-02T23:41:49.977Z,0.30
2023-04-02T23:43:48.109Z,0.50
2023-04-02T23:45:47.992Z,0.60
2023-04-02T23:47:46.187Z,0.15
2023-04-02T23:49:47.971Z,1.20
2023-04-02T23:51:45.827Z,0.80
2023-04-02T23:53:44.381Z,1.13
2023-04-02T23:55:42.456Z,0.32
2023-04-02T23:57:41.669Z,1.48
2023-04-02T23:59:40.428Z,1.45
